Aviation Digital Data Service (ADDS)

Output produced by TAFs form (0255 UTC 17 January 2018)
found at http://www.aviationweather.gov/adds/tafs/
 
KVLD 170153Z 00000KT 10SM CLR 05/02 A3032 RMK AO2 SLP277 T00500022
KVLD 162321Z 1700/1724 VRB04KT P6SM BKN200 
     FM170800 33006KT P6SM BKN040 
     FM171000 33010G15KT P6SM BKN025 OVC040 
     FM171800 33012G18KT P6SM SKC